Terminal Aerodrome Forecast
Issued by NWS

Current Version | Previous Version | Text Only | Print | Product List | Glossary On
Versions: 1 2 3 4 5 6 7 8 9 10 11 12 13 14 15 16 17 18
000
FTUS42 KKEY 050534
TAFMTH
TAF
KMTH 050534Z 0506/0606 11008KT P6SM SCT023=

USA.gov is the U.S. government's official web portal to all federal, state and local government web resources and services.